Time;durP1;ratioP1;P1;durP2;ratioP2;P2;SDS_P1;SDS_P2;PMS_P1;PMS_P2;Temp;Humidity;BMP_temperature;BMP_pressure;BME280_temperature;BME280_humidity;BME280_pressure;Samples;Min_cycle;Max_cycle;Signal;HPM_P1;HPM_P2
2022/07/01 00:01:41;;;;;;;3.67;2.63;;;;;;;23.58;42.57;101096.69;5041948;28;20065;-78
2022/07/01 00:04:08;;;;;;;5.18;2.90;;;;;;;23.57;42.72;101092.19;5057502;28;20064;-78
2022/07/01 00:06:36;;;;;;;4.00;2.90;;;;;;;23.57;43.06;101092.19;5041183;28;20143;-79
2022/07/01 00:09:04;;;;;;;4.13;2.90;;;;;;;23.55;43.09;101086.84;5050158;28;20052;-78
2022/07/01 00:11:32;;;;;;;4.55;3.38;;;;;;;23.57;42.80;101092.19;5046133;28;20102;-78
2022/07/01 00:13:58;;;;;;;4.80;3.38;;;;;;;23.55;43.43;101105.41;5058200;28;20040;-78
2022/07/01 00:16:25;;;;;;;4.70;2.83;;;;;;;23.54;43.12;101104.53;5039671;28;20132;-78
2022/07/01 00:18:53;;;;;;;4.25;2.90;;;;;;;23.55;42.67;101106.25;5045354;28;20059;-78
2022/07/01 00:21:19;;;;;;;5.38;3.08;;;;;;;23.54;42.87;101098.97;5049161;28;20044;-78
2022/07/01 00:23:46;;;;;;;4.70;2.97;;;;;;;23.55;42.74;101091.53;5050217;28;20049;-78
2022/07/01 00:26:13;;;;;;;4.28;2.92;;;;;;;23.54;43.04;101098.13;5055091;28;20052;-78
2022/07/01 00:28:39;;;;;;;5.10;3.00;;;;;;;23.54;42.75;101110.06;5055274;28;20097;-78
2022/07/01 00:31:06;;;;;;;4.93;3.30;;;;;;;23.53;43.28;101111.13;5046823;28;20052;-78
2022/07/01 00:33:33;;;;;;;5.13;3.05;;;;;;;23.54;43.12;101117.53;5049406;28;20049;-78
2022/07/01 00:35:59;;;;;;;5.00;3.13;;;;;;;23.53;42.67;101105.56;5055550;28;20048;-77
2022/07/01 00:38:26;;;;;;;5.15;3.28;;;;;;;23.53;43.07;101113.88;5057621;28;20045;-78
2022/07/01 00:40:54;;;;;;;4.38;2.83;;;;;;;23.52;42.90;101112.16;5051953;28;20094;-78
2022/07/01 00:43:24;;;;;;;5.97;3.15;;;;;;;23.52;42.71;101118.56;5043195;28;20041;-78
2022/07/01 00:46:12;;;;;;;4.95;2.78;;;;;;;23.50;42.75;101117.00;5050931;28;20144;-78
2022/07/01 00:48:39;;;;;;;4.80;2.95;;;;;;;23.50;42.61;101119.78;5052024;28;20139;-78
2022/07/01 00:51:07;;;;;;;4.43;3.03;;;;;;;23.49;42.73;101132.78;5061329;28;20056;-78
2022/07/01 00:53:34;;;;;;;4.40;2.92;;;;;;;23.49;42.71;101123.59;5049779;28;20415;-78
2022/07/01 00:56:01;;;;;;;4.75;3.00;;;;;;;23.46;42.56;101119.25;5048531;28;20049;-78
2022/07/01 00:58:29;;;;;;;4.50;2.88;;;;;;;23.47;42.82;101123.72;5050581;28;20055;-78
2022/07/01 01:00:58;;;;;;;5.38;3.33;;;;;;;23.47;43.03;101120.13;5059531;28;20080;-78
2022/07/01 01:03:25;;;;;;;4.57;3.03;;;;;;;23.46;42.87;101123.94;5050689;28;20052;-78
2022/07/01 01:05:56;;;;;;;5.30;2.97;;;;;;;23.46;42.74;101129.47;5051059;28;20053;-78
2022/07/01 01:08:25;;;;;;;5.40;3.70;;;;;;;23.44;42.82;101128.78;5050826;28;20051;-78
2022/07/01 01:10:54;;;;;;;4.57;3.28;;;;;;;23.44;42.66;101131.56;5061123;28;20056;-78
2022/07/01 01:13:20;;;;;;;5.03;3.08;;;;;;;23.42;42.61;101133.63;5042934;28;20041;-78
2022/07/01 01:15:47;;;;;;;4.95;3.35;;;;;;;23.42;42.97;101141.94;5053539;28;20045;-78
2022/07/01 01:18:14;;;;;;;6.47;3.83;;;;;;;23.39;42.64;101154.25;5061884;28;20045;-77
2022/07/01 01:20:41;;;;;;;6.32;3.80;;;;;;;23.39;42.10;101148.69;5054134;28;20463;-78
2022/07/01 01:23:08;;;;;;;5.47;3.42;;;;;;;23.39;42.80;101158.94;5054311;28;20503;-78
2022/07/01 01:25:34;;;;;;;6.10;3.75;;;;;;;23.37;42.61;101159.13;5048331;28;20632;-77
2022/07/01 01:28:02;;;;;;;5.72;3.35;;;;;;;23.37;42.17;101161.91;5052406;28;20131;-78
2022/07/01 01:30:29;;;;;;;5.03;3.35;;;;;;;23.36;42.63;101162.06;5058296;28;20633;-78
2022/07/01 01:32:56;;;;;;;5.00;3.28;;;;;;;23.35;42.83;101161.19;5048572;28;20515;-78
2022/07/01 01:35:23;;;;;;;5.18;3.55;;;;;;;23.35;42.17;101168.66;5045744;28;20083;-78
2022/07/01 01:37:51;;;;;;;4.95;3.05;;;;;;;23.31;42.48;101159.81;5055696;28;20092;-78
2022/07/01 01:40:18;;;;;;;5.68;3.15;;;;;;;23.31;42.84;101170.03;5042321;28;20049;-78
2022/07/01 01:42:46;;;;;;;6.00;3.42;;;;;;;23.29;42.42;101172.13;5045182;28;20048;-78
2022/07/01 01:45:13;;;;;;;6.13;3.50;;;;;;;23.29;42.47;101177.69;5056455;28;20061;-78
2022/07/01 01:47:39;;;;;;;5.75;3.42;;;;;;;23.27;42.51;101186.16;5050262;28;20107;-78
2022/07/01 01:50:08;;;;;;;5.30;3.28;;;;;;;23.27;42.76;101176.97;5044465;28;20049;-78
2022/07/01 01:52:35;;;;;;;6.53;3.50;;;;;;;23.23;42.84;101157.06;5048371;28;20073;-79
2022/07/01 01:55:01;;;;;;;5.57;3.47;;;;;;;23.24;43.10;101177.31;5052062;28;20099;-79
2022/07/01 01:57:28;;;;;;;6.75;3.83;;;;;;;23.22;42.78;101182.19;5047553;28;20056;-79
2022/07/01 01:59:55;;;;;;;5.65;3.35;;;;;;;23.21;42.63;101181.34;5048302;28;20080;-78
2022/07/01 02:02:21;;;;;;;5.53;3.30;;;;;;;23.20;42.52;101174.06;5046511;28;20079;-79
2022/07/01 02:04:49;;;;;;;5.95;3.88;;;;;;;23.20;42.80;101164.88;5049320;28;20049;-78
2022/07/01 02:07:15;;;;;;;6.32;3.47;;;;;;;23.18;42.85;101162.28;5041049;28;20049;-79
2022/07/01 02:09:42;;;;;;;6.47;3.78;;;;;;;23.18;42.82;101175.28;5041640;28;20099;-79
2022/07/01 02:12:09;;;;;;;6.20;3.22;;;;;;;23.17;42.68;101179.06;5052058;28;20124;-78
2022/07/01 02:14:36;;;;;;;5.18;3.15;;;;;;;23.17;43.00;101184.63;5045298;28;20068;-78
2022/07/01 02:17:03;;;;;;;5.15;3.17;;;;;;;23.16;43.13;101189.28;5052121;28;20060;-79
2022/07/01 02:19:30;;;;;;;5.95;2.90;;;;;;;23.15;42.73;101188.41;5054315;28;20052;-79
2022/07/01 02:21:56;;;;;;;4.30;2.55;;;;;;;23.15;42.70;101198.63;5052926;28;20483;-78
2022/07/01 02:24:23;;;;;;;5.32;2.67;;;;;;;23.14;42.85;101199.72;5047248;28;20909;-78
2022/07/01 02:26:50;;;;;;;7.22;3.22;;;;;;;23.14;43.31;101194.16;5052359;28;20053;-79
2022/07/01 02:29:17;;;;;;;4.35;2.63;;;;;;;23.13;42.82;101192.44;5044594;28;20554;-78
2022/07/01 02:31:43;;;;;;;5.60;3.22;;;;;;;23.13;42.92;101198.84;5056355;28;20087;-79
2022/07/01 02:34:10;;;;;;;5.28;3.05;;;;;;;23.13;42.95;101200.75;5052690;28;20098;-78
2022/07/01 02:36:37;;;;;;;4.97;2.97;;;;;;;23.13;42.54;101206.28;5057871;28;20045;-78
2022/07/01 02:39:03;;;;;;;5.40;3.08;;;;;;;23.12;42.82;101207.31;5046996;28;20554;-78
2022/07/01 02:41:30;;;;;;;5.28;3.25;;;;;;;23.11;42.53;101205.59;5053606;28;20088;-78
2022/07/01 02:43:56;;;;;;;6.95;3.30;;;;;;;23.11;42.84;101223.06;5047759;28;20073;-78
2022/07/01 02:46:24;;;;;;;5.72;3.70;;;;;;;23.10;42.53;101234.31;5047557;28;20080;-79
2022/07/01 02:48:51;;;;;;;5.68;3.40;;;;;;;23.08;42.86;101228.94;5053138;28;20534;-79
2022/07/01 02:51:17;;;;;;;5.20;2.97;;;;;;;23.08;42.93;101242.81;5043166;28;20069;-79
2022/07/01 02:53:44;;;;;;;4.93;2.95;;;;;;;23.06;43.23;101244.88;5051910;28;20044;-79
2022/07/01 02:56:11;;;;;;;6.10;3.08;;;;;;;23.06;42.99;101244.88;5042044;28;20560;-79
2022/07/01 02:58:37;;;;;;;4.82;3.15;;;;;;;23.05;43.05;101247.84;5048724;28;20339;-78
2022/07/01 03:01:04;;;;;;;5.10;3.15;;;;;;;23.05;43.22;101251.47;5040994;28;20081;-78
2022/07/01 03:03:30;;;;;;;4.68;2.78;;;;;;;23.03;42.93;101245.25;5048562;28;20077;-79
2022/07/01 03:05:57;;;;;;;6.03;3.35;;;;;;;23.05;43.31;101254.25;5059352;28;20045;-78
2022/07/01 03:08:24;;;;;;;5.53;3.15;;;;;;;23.03;42.84;101258.22;5049711;28;20075;-79
2022/07/01 03:10:50;;;;;;;5.47;3.20;;;;;;;23.02;43.19;101265.66;5044845;28;20053;-79
2022/07/01 03:13:19;;;;;;;5.65;3.45;;;;;;;23.02;42.86;101256.47;5044686;28;20065;-78
2022/07/01 03:15:45;;;;;;;5.30;3.33;;;;;;;23.02;43.21;101259.25;5041966;28;20539;-79
2022/07/01 03:18:12;;;;;;;5.80;3.20;;;;;;;23.01;43.17;101268.59;5051139;28;20045;-79
2022/07/01 03:20:39;;;;;;;5.60;3.17;;;;;;;23.01;43.00;101272.22;5045937;28;20084;-79
2022/07/01 03:23:05;;;;;;;5.72;2.90;;;;;;;23.02;42.81;101276.75;5047749;28;20088;-79
2022/07/01 03:25:36;;;;;;;5.65;2.60;;;;;;;23.03;43.19;101281.25;5046456;28;20057;-79
2022/07/01 03:28:03;;;;;;;4.03;2.60;;;;;;;22.99;43.06;101270.66;5047553;28;20041;-78
2022/07/01 03:30:29;;;;;;;5.80;2.80;;;;;;;22.98;42.95;101266.16;5045138;28;20147;-78
2022/07/01 03:32:56;;;;;;;5.88;2.80;;;;;;;22.97;42.91;101261.69;5056023;28;20072;-79
2022/07/01 03:35:35;;;;;;;4.55;2.58;;;;;;;22.96;43.37;101262.72;5043889;28;20057;-78
2022/07/01 03:38:03;;;;;;;5.85;2.80;;;;;;;22.95;43.27;101261.00;5036953;28;20076;-79
2022/07/01 03:40:33;;;;;;;4.93;2.80;;;;;;;22.95;42.75;101253.56;5047634;28;20056;-78
2022/07/01 03:43:00;;;;;;;4.38;2.40;;;;;;;22.93;42.79;101258.38;5046884;28;20823;-79
2022/07/01 03:45:26;;;;;;;5.15;2.55;;;;;;;22.92;42.70;101262.19;5044411;28;20204;-79
2022/07/01 03:47:53;;;;;;;6.15;3.22;;;;;;;22.92;42.74;101269.63;5047683;28;20080;-79
2022/07/01 03:50:24;;;;;;;4.90;2.63;;;;;;;22.94;43.09;101268.44;5048190;28;20132;-78
2022/07/01 03:55:38;;;;;;;4.93;2.67;;;;;;;22.89;42.82;101279.16;5046042;28;20053;-79
2022/07/01 03:58:04;;;;;;;4.55;2.70;;;;;;;22.89;42.71;101267.22;5048131;28;20088;-79
2022/07/01 04:00:35;;;;;;;5.00;2.50;;;;;;;22.91;43.13;101273.44;5043310;28;20135;-78
2022/07/01 04:03:03;;;;;;;4.57;2.53;;;;;;;22.88;43.31;101266.34;5048781;28;20111;-79
2022/07/01 04:05:36;;;;;;;4.13;2.60;;;;;;;22.89;43.43;101262.56;5046871;28;20051;-78
2022/07/01 04:08:04;;;;;;;;;;;;;;;22.62;43.26;101260.06;5048459;28;20478;-79
2022/07/01 04:10:35;;;;;;;4.70;1.90;;;;;;;22.82;42.87;101246.78;5053302;28;20433;-79
2022/07/01 04:13:03;;;;;;;3.75;1.70;;;;;;;22.86;42.49;101253.72;5041742;28;20159;-78
2022/07/01 04:15:50;;;;;;;3.55;1.90;;;;;;;22.84;42.92;101248.34;5045203;28;20060;-79
2022/07/01 04:18:17;;;;;;;4.05;1.90;;;;;;;22.84;42.58;101253.00;5058575;28;20087;-79
2022/07/01 04:22:32;;;;;;;4.00;1.90;;;;;;;22.84;43.02;101255.78;5049834;28;20139;-79
2022/07/01 04:23:30;;;;;;;3.45;1.85;;;;;;;22.83;42.53;101254.03;5044094;28;20076;-79
2022/07/01 04:25:57;;;;;;;3.78;1.88;;;;;;;22.83;42.97;101266.00;5057953;28;20041;-79
2022/07/01 04:28:44;;;;;;;3.97;1.83;;;;;;;22.83;42.93;101276.19;5043346;28;20048;-77
2022/07/01 04:31:10;;;;;;;3.60;2.20;;;;;;;22.84;42.87;101278.81;5037738;28;20167;-77
2022/07/01 04:33:37;;;;;;;5.05;2.03;;;;;;;22.83;42.73;101282.59;5045025;28;20048;-77
2022/07/01 04:36:03;;;;;;;2.80;1.77;;;;;;;22.82;43.40;101283.63;5041528;28;20057;-77
2022/07/01 04:38:30;;;;;;;3.10;1.70;;;;;;;22.81;42.97;101290.25;5046189;28;20045;-78
2022/07/01 04:43:41;;;;;;;4.38;1.85;;;;;;;22.77;42.77;101278.63;5047440;28;20122;-78
2022/07/01 04:46:08;;;;;;;3.47;1.83;;;;;;;22.77;42.95;101269.47;5040525;28;20136;-78
2022/07/01 04:48:35;;;;;;;4.07;1.55;;;;;;;22.76;43.01;101270.50;5041214;28;20052;-78
2022/07/01 04:51:01;;;;;;;3.20;1.67;;;;;;;22.75;43.04;101268.75;5043020;28;20076;-77
2022/07/01 04:53:30;;;;;;;3.92;1.98;;;;;;;22.74;42.85;101258.72;5045841;28;20049;-78
2022/07/01 04:55:57;;;;;;;3.95;1.90;;;;;;;22.74;42.77;101261.47;5048888;28;20119;-78
2022/07/01 04:58:25;;;;;;;3.67;1.90;;;;;;;22.73;42.68;101273.59;5045453;28;20067;-78
2022/07/01 05:00:52;;;;;;;3.17;1.92;;;;;;;22.72;43.08;101269.94;5041549;28;20081;-78
2022/07/01 05:03:19;;;;;;;4.75;1.70;;;;;;;22.74;43.25;101253.19;5046299;28;20127;-77
2022/07/01 05:05:46;;;;;;;2.97;1.60;;;;;;;22.72;43.05;101245.03;5043924;28;20046;-77
2022/07/01 05:08:12;;;;;;;6.50;1.80;;;;;;;22.72;43.02;101246.94;5040774;28;20076;-78
2022/07/01 05:10:39;;;;;;;3.83;1.60;;;;;;;22.72;43.02;101258.00;5064145;28;20049;-78
2022/07/01 05:13:07;;;;;;;4.45;2.10;;;;;;;22.71;43.27;101243.31;5043635;28;20447;-78
2022/07/01 05:15:34;;;;;;;3.22;1.58;;;;;;;22.71;42.98;101246.06;5042036;28;20061;-78
2022/07/01 05:23:36;;;;;;;4.10;1.50;;;;;;;22.68;42.83;101238.09;5048844;28;20049;-77
2022/07/01 05:26:03;;;;;;;2.47;1.42;;;;;;;22.69;43.13;101231.53;5049704;28;20368;-77
2022/07/01 05:28:30;;;;;;;2.75;1.60;;;;;;;22.68;43.32;101235.31;5056711;28;20044;-78
2022/07/01 05:30:56;;;;;;;3.15;1.42;;;;;;;22.69;42.66;101237.06;5045360;28;20077;-78
2022/07/01 05:33:26;;;;;;;4.05;1.60;;;;;;;22.69;42.84;101236.19;5042187;28;20099;-78
2022/07/01 05:35:53;;;;;;;3.30;1.67;;;;;;;22.68;42.99;101245.53;5040029;28;20041;-78
2022/07/01 05:38:21;;;;;;;3.20;1.75;;;;;;;22.68;42.88;101262.16;5051595;28;20044;-78
2022/07/01 05:40:48;;;;;;;2.90;1.55;;;;;;;22.67;42.75;101263.19;5043690;28;20053;-78
2022/07/01 05:43:14;;;;;;;2.25;1.48;;;;;;;22.67;42.27;101257.63;5037835;28;20103;-78
2022/07/01 05:45:41;;;;;;;4.35;1.83;;;;;;;22.66;42.12;101264.22;5056517;28;20444;-78
2022/07/01 05:48:08;;;;;;;4.03;1.70;;;;;;;22.64;42.03;101274.59;5055370;28;20048;-78
2022/07/01 05:50:34;;;;;;;2.45;1.48;;;;;;;22.63;42.69;101289.47;5049868;28;20106;-78
2022/07/01 05:53:01;;;;;;;2.28;1.60;;;;;;;22.62;42.60;101282.22;5043141;28;20040;-78
2022/07/01 05:55:28;;;;;;;2.70;1.52;;;;;;;22.59;42.45;101280.63;5049259;28;20080;-78
2022/07/01 05:57:54;;;;;;;3.67;1.90;;;;;;;22.58;42.05;101289.97;5048567;28;20056;-78
2022/07/01 06:00:21;;;;;;;3.70;1.73;;;;;;;22.57;42.01;101288.22;5046205;28;20140;-79
2022/07/01 06:02:47;;;;;;;3.22;1.95;;;;;;;22.56;42.47;101285.66;5044415;28;20052;-79
2022/07/01 06:05:14;;;;;;;4.40;1.88;;;;;;;22.55;42.32;101287.56;5047604;28;20047;-79
2022/07/01 06:07:41;;;;;;;3.08;1.63;;;;;;;22.55;42.42;101283.94;5050794;28;20136;-79
2022/07/01 06:10:12;;;;;;;3.53;1.98;;;;;;;22.55;42.30;101278.41;5042547;28;20461;-79
2022/07/01 06:12:39;;;;;;;4.10;2.15;;;;;;;22.55;42.66;101283.94;5046688;28;20049;-79
2022/07/01 06:15:07;;;;;;;3.53;1.67;;;;;;;22.56;42.90;101281.00;5052550;28;20084;-80
2022/07/01 06:17:35;;;;;;;2.70;1.75;;;;;;;22.55;43.18;101279.25;5064392;28;20056;-80
2022/07/01 06:20:02;;;;;;;3.85;2.10;;;;;;;22.57;42.85;101285.47;5052280;28;20042;-80
2022/07/01 06:22:29;;;;;;;3.70;1.75;;;;;;;22.58;42.72;101278.03;5047945;28;20230;-79
2022/07/01 06:24:56;;;;;;;3.88;2.20;;;;;;;22.57;42.94;101279.94;5044163;28;20454;-80
2022/07/01 06:27:23;;;;;;;4.40;2.10;;;;;;;22.60;42.74;101275.97;5048372;28;20083;-80
2022/07/01 06:29:51;;;;;;;3.83;2.10;;;;;;;22.61;42.60;101299.84;5048331;28;20171;-77
2022/07/01 06:32:17;;;;;;;4.18;2.40;;;;;;;22.60;42.43;101317.47;5062667;28;20048;-79
2022/07/01 06:34:44;;;;;;;4.07;2.28;;;;;;;22.60;43.03;101315.59;5054548;28;20054;-78
2022/07/01 06:37:11;;;;;;;3.97;2.08;;;;;;;22.62;42.48;101310.75;5049875;28;20081;-78
2022/07/01 06:39:38;;;;;;;5.00;2.20;;;;;;;22.63;42.85;101306.09;5051429;28;20044;-79
2022/07/01 06:42:08;;;;;;;4.65;2.38;;;;;;;22.65;42.94;101313.16;5049099;28;20061;-79
2022/07/01 06:44:34;;;;;;;3.90;2.10;;;;;;;22.66;42.50;101303.81;5052357;28;20052;-79
2022/07/01 06:47:02;;;;;;;3.60;2.33;;;;;;;22.67;42.60;101310.22;5050897;28;20131;-79
2022/07/01 06:49:28;;;;;;;3.72;2.30;;;;;;;22.67;42.66;101310.22;5045958;28;20045;-78
2022/07/01 06:51:55;;;;;;;4.03;2.28;;;;;;;22.67;42.44;101324.94;5042400;28;20108;-79
2022/07/01 06:54:21;;;;;;;4.35;2.35;;;;;;;22.67;42.91;101338.78;5043399;28;20130;-78
2022/07/01 06:56:48;;;;;;;6.00;2.50;;;;;;;22.68;42.86;101346.06;5053856;28;20084;-79
2022/07/01 06:59:17;;;;;;;4.18;2.28;;;;;;;22.69;42.93;101350.56;5049054;28;20384;-79
2022/07/01 07:01:44;;;;;;;4.57;2.47;;;;;;;22.69;42.57;101347.78;5042683;28;20115;-79
2022/07/01 07:04:10;;;;;;;3.92;2.22;;;;;;;22.70;42.56;101343.13;5042083;28;20148;-78
2022/07/01 07:06:37;;;;;;;4.40;2.53;;;;;;;22.69;42.26;101342.25;5052506;28;20505;-79
2022/07/01 07:09:10;;;;;;;4.15;2.30;;;;;;;22.73;42.53;101342.78;5045712;28;20071;-80
2022/07/01 07:11:36;;;;;;;3.97;2.70;;;;;;;22.68;42.27;101359.03;5048491;28;20092;-79
2022/07/01 07:14:03;;;;;;;4.05;2.30;;;;;;;22.69;42.07;101355.22;5051478;28;20053;-79
2022/07/01 07:16:29;;;;;;;4.63;2.20;;;;;;;22.70;42.48;101362.50;5038885;28;20132;-79
2022/07/01 07:18:56;;;;;;;3.80;2.10;;;;;;;22.70;42.08;101343.13;5044934;28;20554;-78
2022/07/01 07:21:22;;;;;;;4.32;2.35;;;;;;;22.70;42.28;101348.66;5060632;28;20067;-78
2022/07/01 07:23:49;;;;;;;4.03;2.33;;;;;;;22.70;42.28;101345.88;5049661;28;20069;-78
2022/07/01 07:26:16;;;;;;;4.38;2.55;;;;;;;22.71;43.04;101344.84;5047811;28;20076;-78
2022/07/01 07:28:43;;;;;;;3.90;2.10;;;;;;;22.73;42.54;101351.09;5052332;28;20106;-79
2022/07/01 07:31:10;;;;;;;3.42;2.13;;;;;;;22.75;42.77;101351.81;5046261;28;20048;-78
2022/07/01 07:33:36;;;;;;;4.22;2.53;;;;;;;22.78;42.96;101357.00;5044907;28;20059;-80
2022/07/01 07:36:03;;;;;;;5.30;2.20;;;;;;;22.81;43.00;101347.50;5042893;28;20790;-78
2022/07/01 07:38:30;;;;;;;2.92;2.15;;;;;;;22.83;42.50;101349.06;5043597;28;20163;-79
2022/07/01 07:41:00;;;;;;;3.90;2.20;;;;;;;22.91;42.87;101370.34;5050101;28;20487;-79
2022/07/01 07:43:28;;;;;;;3.22;2.15;;;;;;;22.93;42.68;101363.63;5042747;28;20047;-78
2022/07/01 07:45:55;;;;;;;4.05;2.40;;;;;;;22.95;42.63;101360.69;5044614;28;20136;-78
2022/07/01 07:48:25;;;;;;;3.63;2.53;;;;;;;22.98;42.65;101374.16;5045971;28;20487;-79
2022/07/01 07:50:51;;;;;;;4.72;2.53;;;;;;;23.01;43.02;101380.25;5049061;28;20134;-79
2022/07/01 07:53:18;;;;;;;3.65;2.35;;;;;;;23.03;42.38;101374.53;5044051;28;20412;-78
2022/07/01 07:55:45;;;;;;;3.92;2.30;;;;;;;23.06;42.55;101385.28;5047913;28;20056;-80
2022/07/01 07:58:17;;;;;;;3.25;2.15;;;;;;;23.07;42.54;101385.09;5047285;28;20095;-79
2022/07/01 08:00:46;;;;;;;3.17;2.03;;;;;;;23.11;42.66;101377.31;5042109;28;20045;-80
2022/07/01 08:03:12;;;;;;;3.22;2.13;;;;;;;23.13;42.44;101384.44;5042140;28;20128;-82
2022/07/01 08:05:39;;;;;;;2.88;2.17;;;;;;;23.18;42.49;101381.13;5041834;28;20136;-80
2022/07/01 08:08:06;;;;;;;3.70;2.17;;;;;;;23.21;42.49;101389.13;5042829;28;20049;-80
2022/07/01 08:10:32;;;;;;;4.55;2.20;;;;;;;23.26;42.20;101388.59;5044267;28;20136;-81
2022/07/01 08:13:03;;;;;;;3.70;2.20;;;;;;;23.31;42.72;101380.63;5046293;28;20102;-79
2022/07/01 08:15:31;;;;;;;3.70;2.28;;;;;;;23.37;42.63;101385.50;5045754;28;20052;-80
2022/07/01 08:17:57;;;;;;;4.85;2.25;;;;;;;23.43;42.72;101374.56;5035538;28;20048;-80
2022/07/01 08:20:24;;;;;;;3.83;2.22;;;;;;;23.49;42.17;101378.56;5045367;28;20041;-80
2022/07/01 08:22:50;;;;;;;2.88;1.73;;;;;;;23.56;42.57;101376.84;5045353;28;20049;-80
2022/07/01 08:25:17;;;;;;;4.38;1.98;;;;;;;23.62;42.23;101383.63;5045773;28;20135;-81
2022/07/01 08:27:44;;;;;;;4.60;2.25;;;;;;;23.66;41.78;101387.75;5047018;28;20048;-80
2022/07/01 08:30:11;;;;;;;3.75;2.10;;;;;;;23.71;41.41;101386.22;5039713;28;20048;-80
2022/07/01 08:32:37;;;;;;;3.42;2.10;;;;;;;23.75;41.50;101386.69;5043738;28;20091;-79
2022/07/01 08:35:05;;;;;;;4.13;2.20;;;;;;;23.78;41.66;101383.59;5044639;28;20057;-80
2022/07/01 08:37:31;;;;;;;2.78;1.85;;;;;;;23.82;41.42;101390.50;5043208;28;20056;-80
2022/07/01 08:39:59;;;;;;;3.13;2.08;;;;;;;23.85;41.20;101391.03;5038634;28;20571;-80
2022/07/01 08:42:25;;;;;;;3.67;2.08;;;;;;;23.90;41.60;101396.91;5043870;28;20389;-80
2022/07/01 08:44:52;;;;;;;3.65;2.00;;;;;;;23.94;41.42;101408.53;5046974;28;20049;-79
2022/07/01 08:47:19;;;;;;;4.35;2.10;;;;;;;23.97;42.05;101413.69;5050238;28;20128;-79
2022/07/01 08:49:45;;;;;;;4.07;2.25;;;;;;;23.99;41.97;101414.41;5040190;28;20047;-79
2022/07/01 08:52:12;;;;;;;4.20;2.20;;;;;;;24.00;41.86;101416.13;5046574;28;20045;-79
2022/07/01 08:54:39;;;;;;;3.72;2.20;;;;;;;24.01;42.02;101417.88;5049416;28;20132;-79
2022/07/01 08:57:08;;;;;;;3.67;1.90;;;;;;;24.03;42.07;101417.69;5059854;28;20052;-80
2022/07/01 08:59:34;;;;;;;4.65;2.30;;;;;;;24.03;42.13;101420.47;5047574;28;20144;-80
2022/07/01 09:02:04;;;;;;;4.28;2.08;;;;;;;24.05;42.06;101430.34;5048603;28;20153;-80
2022/07/01 09:04:32;;;;;;;3.85;2.28;;;;;;;24.03;41.70;101426.88;5044298;28;20082;-82
2022/07/01 09:07:07;;;;;;;2.70;1.90;;;;;;;24.05;41.73;101430.34;5054218;28;20159;-80
2022/07/01 09:09:38;;;;;;;3.70;2.03;;;;;;;24.04;41.52;101425.00;5046472;28;20559;-79
2022/07/01 09:12:05;;;;;;;4.28;2.30;;;;;;;24.00;41.57;101427.22;5048622;28;20049;-79
2022/07/01 09:14:33;;;;;;;3.20;1.85;;;;;;;24.00;41.79;101418.91;5047972;28;20474;-79
2022/07/01 09:17:03;;;;;;;3.05;1.70;;;;;;;24.01;41.79;101419.78;5047313;28;20049;-81
2022/07/01 09:19:36;;;;;;;2.35;1.45;;;;;;;24.03;41.56;101418.56;5051280;28;20045;-80
2022/07/01 09:22:10;;;;;;;3.55;1.80;;;;;;;24.02;41.68;101419.59;5048788;28;20049;-79
2022/07/01 09:24:46;;;;;;;3.58;1.83;;;;;;;24.09;41.26;101419.75;5049279;28;20049;-80
2022/07/01 09:27:16;;;;;;;2.22;1.42;;;;;;;24.10;41.08;101419.59;5041423;28;20085;-79
2022/07/01 09:29:50;;;;;;;3.35;1.60;;;;;;;24.14;41.20;101420.94;5064187;28;20425;-79
2022/07/01 09:32:21;;;;;;;3.20;1.50;;;;;;;24.16;41.19;101427.19;5044914;28;20045;-79
2022/07/01 09:34:52;;;;;;;3.45;1.55;;;;;;;24.20;40.55;101427.72;5051501;28;20049;-79
2022/07/01 09:37:24;;;;;;;2.30;1.40;;;;;;;24.21;40.71;101416.44;5050266;28;20348;-79
2022/07/01 09:39:56;;;;;;;3.22;1.27;;;;;;;24.26;40.05;101421.50;5058983;28;20102;-79
2022/07/01 09:42:24;;;;;;;3.30;1.60;;;;;;;24.25;40.48;101412.28;5053151;28;20053;-80
2022/07/01 09:44:57;;;;;;;2.38;1.30;;;;;;;24.30;40.14;101411.75;5046414;28;20049;-79
2022/07/01 09:47:30;;;;;;;2.25;1.30;;;;;;;24.30;40.28;101425.63;5041872;28;20064;-79
2022/07/01 09:49:58;;;;;;;2.25;1.40;;;;;;;24.34;40.17;101424.25;5035193;28;20384;-79
2022/07/01 09:52:25;;;;;;;2.72;1.30;;;;;;;24.39;39.89;101423.69;5036980;28;20140;-79
2022/07/01 09:54:52;;;;;;;2.10;1.42;;;;;;;24.44;39.68;101427.69;5047121;28;20076;-78
2022/07/01 09:57:20;;;;;;;2.95;1.50;;;;;;;24.50;39.25;101429.72;5046506;28;20106;-79
2022/07/01 09:59:48;;;;;;;2.50;1.27;;;;;;;24.57;39.30;101435.44;5046670;28;20091;-78
2022/07/01 10:02:18;;;;;;;2.05;1.38;;;;;;;24.61;38.72;101422.94;5045938;28;20051;-78
2022/07/01 10:04:53;;;;;;;3.10;1.27;;;;;;;24.68;38.43;101423.06;5045237;28;20053;-78
2022/07/01 10:07:41;;;;;;;3.25;1.15;;;;;;;24.73;38.13;101428.94;5046560;28;20080;-78
2022/07/01 10:11:10;;;;;;;2.78;1.40;;;;;;;24.72;38.32;101438.31;5047913;28;20088;-78
2022/07/01 10:13:36;;;;;;;2.78;1.20;;;;;;;24.78;38.46;101435.69;5006670;28;20044;-78
2022/07/01 10:16:06;;;;;;;3.08;1.30;;;;;;;24.89;37.51;101438.06;5046104;28;20110;-78
2022/07/01 10:18:33;;;;;;;2.33;1.13;;;;;;;24.92;37.99;101434.97;5035149;28;20414;-79
2022/07/01 10:21:00;;;;;;;2.17;1.02;;;;;;;25.00;38.18;101436.81;5048866;28;20099;-79
2022/07/01 10:23:37;;;;;;;2.30;1.20;;;;;;;25.10;37.87;101433.81;5041671;28;20073;-78
2022/07/01 10:26:05;;;;;;;2.15;1.17;;;;;;;25.17;38.21;101437.59;5048801;28;20073;-78
2022/07/01 10:28:39;;;;;;;2.65;1.30;;;;;;;25.28;37.20;101446.34;5062970;28;20049;-78
2022/07/01 10:31:15;;;;;;;1.50;1.15;;;;;;;25.35;37.24;101441.81;5046497;28;20106;-78
2022/07/01 10:33:57;;;;;;;2.08;1.00;;;;;;;25.46;36.60;101443.28;5049224;28;20045;-78
2022/07/01 10:36:27;;;;;;;2.17;1.17;;;;;;;25.57;37.33;101442.84;5061499;28;20076;-78
2022/07/01 10:39:00;;;;;;;1.45;0.82;;;;;;;25.69;36.39;101437.78;5052172;28;20396;-78
2022/07/01 10:41:29;;;;;;;2.92;0.90;;;;;;;25.77;37.20;101446.91;5050589;28;20053;-79
2022/07/01 10:43:57;;;;;;;1.77;1.00;;;;;;;25.88;36.56;101439.13;5044406;28;20060;-79
2022/07/01 10:47:02;;;;;;;3.08;1.00;;;;;;;25.94;36.13;101430.06;5045077;28;20049;-79
2022/07/01 10:49:40;;;;;;;2.17;1.00;;;;;;;26.12;35.39;101425.84;5005843;28;20613;-80
2022/07/01 10:52:12;;;;;;;1.98;1.20;;;;;;;26.23;35.58;101435.66;5048334;28;20068;-79
2022/07/01 10:54:45;;;;;;;2.03;1.10;;;;;;;26.30;35.90;101433.88;5045780;28;20589;-79
2022/07/01 10:57:20;;;;;;;3.28;1.00;;;;;;;26.45;34.73;101425.50;5046926;28;20050;-79
2022/07/01 10:59:53;;;;;;;2.40;0.98;;;;;;;26.54;34.51;101427.16;5035744;28;20081;-79
2022/07/01 11:02:24;;;;;;;1.88;1.00;;;;;;;26.62;34.62;101426.19;5036414;28;20073;-79
2022/07/01 11:04:54;;;;;;;0.85;0.80;;;;;;;26.68;34.29;101428.22;5043576;28;20136;-79
2022/07/01 11:07:25;;;;;;;1.63;0.85;;;;;;;26.75;34.11;101429.16;5048990;28;20480;-79
2022/07/01 11:09:52;;;;;;;1.60;0.88;;;;;;;26.77;34.46;101432.59;5039698;28;20510;-79
2022/07/01 11:12:20;;;;;;;2.45;0.90;;;;;;;26.81;34.08;101426.47;5048362;28;20208;-79
2022/07/01 11:14:47;;;;;;;1.88;0.90;;;;;;;26.84;34.05;101426.06;5046513;28;20250;-79
2022/07/01 11:17:14;;;;;;;2.08;0.82;;;;;;;26.88;33.78;101424.59;5044124;28;20078;-79
2022/07/01 11:19:50;;;;;;;2.30;1.00;;;;;;;26.96;33.33;101425.59;5048690;28;20056;-78
2022/07/01 11:22:21;;;;;;;3.00;0.90;;;;;;;26.98;33.33;101417.91;5052714;28;20045;-80
2022/07/01 11:24:56;;;;;;;1.85;0.82;;;;;;;27.03;32.47;101421.81;5050895;28;20061;-80
2022/07/01 11:27:24;;;;;;;1.33;0.65;;;;;;;27.05;33.37;101421.63;5052799;28;20076;-81
2022/07/01 11:29:56;;;;;;;1.80;0.80;;;;;;;27.09;32.07;101415.47;5056843;28;20051;-79
2022/07/01 11:32:27;;;;;;;1.80;0.70;;;;;;;27.12;32.25;101411.41;5055043;28;20407;-78
2022/07/01 11:34:54;;;;;;;2.22;0.80;;;;;;;27.13;32.92;101416.78;5046081;28;20450;-79
2022/07/01 11:40:12;;;;;;;2.20;0.80;;;;;;;27.18;31.67;101416.19;5045609;28;20428;-80
2022/07/01 11:42:39;;;;;;;2.53;0.90;;;;;;;27.16;32.45;101413.63;5044796;28;20116;-80
2022/07/01 11:45:23;;;;;;;2.75;0.88;;;;;;;27.22;31.67;101411.97;5042962;28;20099;-79